sensor_id;sensor_type;location;lat;lon;timestamp;pressure;altitude;pressure_sealevel;temperature;humidity
50166;BME280;36071;48.140;11.516;2023-01-05T00:03:29;96020.0;;;9.8;76.4
50166;BME280;36071;48.140;11.516;2023-01-05T00:08:29;96020.0;;;9.8;76.5
50166;BME280;36071;48.140;11.516;2023-01-05T00:13:28;96040.0;;;9.7;76.2
50166;BME280;36071;48.140;11.516;2023-01-05T00:18:28;96010.0;;;9.8;75.8
50166;BME280;36071;48.140;11.516;2023-01-05T00:28:28;95990.0;;;9.8;75.6
50166;BME280;36071;48.140;11.516;2023-01-05T00:33:28;95990.0;;;9.9;75.3
50166;BME280;36071;48.140;11.516;2023-01-05T00:38:28;95980.0;;;9.8;75.7
50166;BME280;36071;48.140;11.516;2023-01-05T00:43:28;95980.0;;;9.9;75.2
50166;BME280;36071;48.140;11.516;2023-01-05T00:48:28;95980.0;;;9.9;75.3
50166;BME280;36071;48.140;11.516;2023-01-05T00:53:28;95960.0;;;9.9;75.0
50166;BME280;36071;48.140;11.516;2023-01-05T01:03:29;95970.0;;;10.0;74.7
50166;BME280;36071;48.140;11.516;2023-01-05T01:13:29;95980.0;;;10.0;74.5
50166;BME280;36071;48.140;11.516;2023-01-05T01:18:28;95960.0;;;10.0;74.7
50166;BME280;36071;48.140;11.516;2023-01-05T01:23:28;95960.0;;;10.0;74.6
50166;BME280;36071;48.140;11.516;2023-01-05T01:28:28;95970.0;;;10.0;74.9
50166;BME280;36071;48.140;11.516;2023-01-05T01:33:29;95970.0;;;10.0;74.8
50166;BME280;36071;48.140;11.516;2023-01-05T01:38:28;95950.0;;;9.9;75.0
50166;BME280;36071;48.140;11.516;2023-01-05T01:43:44;95970.0;;;10.0;74.9
50166;BME280;36071;48.140;11.516;2023-01-05T01:48:28;95980.0;;;10.0;75.5
50166;BME280;36071;48.140;11.516;2023-01-05T01:53:31;95960.0;;;10.0;75.3
50166;BME280;36071;48.140;11.516;2023-01-05T01:58:29;95950.0;;;10.0;75.3
50166;BME280;36071;48.140;11.516;2023-01-05T02:03:29;95930.0;;;10.0;75.3
50166;BME280;36071;48.140;11.516;2023-01-05T02:08:28;95930.0;;;10.0;75.9
50166;BME280;36071;48.140;11.516;2023-01-05T02:13:33;95940.0;;;9.9;77.5
50166;BME280;36071;48.140;11.516;2023-01-05T02:18:34;95910.0;;;9.9;77.5
50166;BME280;36071;48.140;11.516;2023-01-05T02:23:42;95890.0;;;9.9;77.8
50166;BME280;36071;48.140;11.516;2023-01-05T02:28:33;95890.0;;;10.0;77.2
50166;BME280;36071;48.140;11.516;2023-01-05T02:33:31;95890.0;;;10.0;76.8
50166;BME280;36071;48.140;11.516;2023-01-05T02:38:31;95870.0;;;10.0;76.8
50166;BME280;36071;48.140;11.516;2023-01-05T02:43:28;95870.0;;;9.9;77.9
50166;BME280;36071;48.140;11.516;2023-01-05T02:48:28;95870.0;;;9.9;80.2
50166;BME280;36071;48.140;11.516;2023-01-05T02:53:29;95880.0;;;9.8;82.3
50166;BME280;36071;48.140;11.516;2023-01-05T02:58:29;95880.0;;;9.8;83.6
50166;BME280;36071;48.140;11.516;2023-01-05T03:03:29;95870.0;;;9.7;85.2
50166;BME280;36071;48.140;11.516;2023-01-05T03:08:29;95860.0;;;9.6;86.0
50166;BME280;36071;48.140;11.516;2023-01-05T03:13:28;95870.0;;;9.6;87.3
50166;BME280;36071;48.140;11.516;2023-01-05T03:18:28;95850.0;;;9.4;89.4
50166;BME280;36071;48.140;11.516;2023-01-05T03:23:28;95850.0;;;9.4;89.8
50166;BME280;36071;48.140;11.516;2023-01-05T03:28:29;95850.0;;;9.4;88.6
50166;BME280;36071;48.140;11.516;2023-01-05T03:33:30;95850.0;;;9.4;88.3
50166;BME280;36071;48.140;11.516;2023-01-05T03:38:29;95840.0;;;9.4;87.4
50166;BME280;36071;48.140;11.516;2023-01-05T03:43:31;95840.0;;;9.5;86.9
50166;BME280;36071;48.140;11.516;2023-01-05T03:48:28;95840.0;;;9.5;86.5
50166;BME280;36071;48.140;11.516;2023-01-05T03:53:28;95840.0;;;9.6;85.6
50166;BME280;36071;48.140;11.516;2023-01-05T03:58:28;95840.0;;;9.6;84.8
50166;BME280;36071;48.140;11.516;2023-01-05T04:03:29;95820.0;;;9.6;84.2
50166;BME280;36071;48.140;11.516;2023-01-05T04:08:28;95840.0;;;9.7;83.0
50166;BME280;36071;48.140;11.516;2023-01-05T04:13:28;95840.0;;;9.8;81.7
50166;BME280;36071;48.140;11.516;2023-01-05T04:18:28;95830.0;;;9.8;81.0
50166;BME280;36071;48.140;11.516;2023-01-05T04:23:28;95830.0;;;9.9;79.9
50166;BME280;36071;48.140;11.516;2023-01-05T04:28:30;95770.0;;;9.3;79.7
50166;BME280;36071;48.140;11.516;2023-01-05T04:33:28;95860.0;;;10.0;78.8
50166;BME280;36071;48.140;11.516;2023-01-05T04:38:28;95850.0;;;10.0;78.6
50166;BME280;36071;48.140;11.516;2023-01-05T04:43:28;95840.0;;;10.0;78.2
50166;BME280;36071;48.140;11.516;2023-01-05T04:48:28;95860.0;;;10.0;78.1
50166;BME280;36071;48.140;11.516;2023-01-05T04:53:28;95860.0;;;10.0;77.8
50166;BME280;36071;48.140;11.516;2023-01-05T04:58:28;95830.0;;;10.0;77.6
50166;BME280;36071;48.140;11.516;2023-01-05T05:03:28;95830.0;;;10.1;76.9
50166;BME280;36071;48.140;11.516;2023-01-05T05:08:28;95820.0;;;10.1;77.1
50166;BME280;36071;48.140;11.516;2023-01-05T05:13:28;95830.0;;;10.1;76.9
50166;BME280;36071;48.140;11.516;2023-01-05T05:18:28;95850.0;;;10.1;76.3
50166;BME280;36071;48.140;11.516;2023-01-05T05:23:28;95840.0;;;10.1;76.2
50166;BME280;36071;48.140;11.516;2023-01-05T05:28:28;95830.0;;;10.1;76.3
50166;BME280;36071;48.140;11.516;2023-01-05T05:33:29;95820.0;;;10.1;76.1
50166;BME280;36071;48.140;11.516;2023-01-05T05:38:28;95840.0;;;10.1;76.2
50166;BME280;36071;48.140;11.516;2023-01-05T05:43:28;95850.0;;;10.1;76.2
50166;BME280;36071;48.140;11.516;2023-01-05T05:48:28;95850.0;;;10.1;76.5
50166;BME280;36071;48.140;11.516;2023-01-05T05:53:28;95830.0;;;10.1;76.7
50166;BME280;36071;48.140;11.516;2023-01-05T05:58:28;95850.0;;;10.1;76.6
50166;BME280;36071;48.140;11.516;2023-01-05T06:03:28;95830.0;;;10.1;76.7
50166;BME280;36071;48.140;11.516;2023-01-05T06:08:29;95840.0;;;10.1;76.5
50166;BME280;36071;48.140;11.516;2023-01-05T06:13:28;95860.0;;;10.1;76.4
50166;BME280;36071;48.140;11.516;2023-01-05T06:18:28;95850.0;;;10.1;76.6
50166;BME280;36071;48.140;11.516;2023-01-05T06:23:29;95860.0;;;10.1;76.7
50166;BME280;36071;48.140;11.516;2023-01-05T06:28:29;95870.0;;;10.1;76.7
50166;BME280;36071;48.140;11.516;2023-01-05T06:33:28;95860.0;;;10.1;76.7
50166;BME280;36071;48.140;11.516;2023-01-05T06:38:28;95870.0;;;10.1;77.0
50166;BME280;36071;48.140;11.516;2023-01-05T06:48:28;95890.0;;;10.1;76.8
50166;BME280;36071;48.140;11.516;2023-01-05T06:53:29;95880.0;;;10.1;76.8
50166;BME280;36071;48.140;11.516;2023-01-05T06:58:28;95890.0;;;10.1;76.9
50166;BME280;36071;48.140;11.516;2023-01-05T07:03:28;95900.0;;;10.1;77.0
50166;BME280;36071;48.140;11.516;2023-01-05T07:08:28;95890.0;;;10.0;77.1
50166;BME280;36071;48.140;11.516;2023-01-05T07:13:28;95900.0;;;10.1;77.5
50166;BME280;36071;48.140;11.516;2023-01-05T07:18:28;95900.0;;;10.0;77.9
50166;BME280;36071;48.140;11.516;2023-01-05T07:23:28;95910.0;;;10.1;77.9
50166;BME280;36071;48.140;11.516;2023-01-05T07:28:28;95910.0;;;10.0;77.6
50166;BME280;36071;48.140;11.516;2023-01-05T07:33:29;95910.0;;;10.1;77.5
50166;BME280;36071;48.140;11.516;2023-01-05T07:38:29;95920.0;;;10.1;77.5
50166;BME280;36071;48.140;11.516;2023-01-05T07:43:28;95920.0;;;10.1;77.2
50166;BME280;36071;48.140;11.516;2023-01-05T07:48:29;95930.0;;;10.1;76.8
50166;BME280;36071;48.140;11.516;2023-01-05T07:58:29;95930.0;;;10.2;76.6
50166;BME280;36071;48.140;11.516;2023-01-05T08:03:28;95940.0;;;10.2;76.3
50166;BME280;36071;48.140;11.516;2023-01-05T08:08:28;95960.0;;;10.2;76.1
50166;BME280;36071;48.140;11.516;2023-01-05T08:13:29;95960.0;;;10.2;76.2
50166;BME280;36071;48.140;11.516;2023-01-05T08:18:28;95960.0;;;10.3;76.2
50166;BME280;36071;48.140;11.516;2023-01-05T08:23:29;95970.0;;;10.2;77.6
50166;BME280;36071;48.140;11.516;2023-01-05T08:28:28;95980.0;;;10.2;78.3
50166;BME280;36071;48.140;11.516;2023-01-05T08:33:28;95970.0;;;10.2;77.6
50166;BME280;36071;48.140;11.516;2023-01-05T08:38:28;96000.0;;;10.2;79.1
50166;BME280;36071;48.140;11.516;2023-01-05T08:43:29;96000.0;;;10.1;81.4
50166;BME280;36071;48.140;11.516;2023-01-05T08:48:28;95990.0;;;10.0;81.4
50166;BME280;36071;48.140;11.516;2023-01-05T08:53:28;96000.0;;;10.1;80.7
50166;BME280;36071;48.140;11.516;2023-01-05T08:58:28;96010.0;;;10.1;79.8
50166;BME280;36071;48.140;11.516;2023-01-05T09:03:28;96010.0;;;10.2;79.4
50166;BME280;36071;48.140;11.516;2023-01-05T09:08:28;96010.0;;;10.2;80.2
50166;BME280;36071;48.140;11.516;2023-01-05T09:13:30;96020.0;;;10.3;77.1
50166;BME280;36071;48.140;11.516;2023-01-05T09:18:28;96020.0;;;10.3;77.0
50166;BME280;36071;48.140;11.516;2023-01-05T09:23:28;96030.0;;;10.4;76.5
50166;BME280;36071;48.140;11.516;2023-01-05T09:28:39;96030.0;;;10.4;75.1
50166;BME280;36071;48.140;11.516;2023-01-05T09:33:29;96040.0;;;10.5;75.2
50166;BME280;36071;48.140;11.516;2023-01-05T09:38:28;96050.0;;;10.5;74.2
50166;BME280;36071;48.140;11.516;2023-01-05T09:43:30;96050.0;;;10.5;73.1
50166;BME280;36071;48.140;11.516;2023-01-05T09:48:28;96040.0;;;10.5;71.9
50166;BME280;36071;48.140;11.516;2023-01-05T09:53:28;96040.0;;;10.6;72.0
50166;BME280;36071;48.140;11.516;2023-01-05T09:58:30;96050.0;;;10.7;71.7
50166;BME280;36071;48.140;11.516;2023-01-05T10:03:29;96070.0;;;10.6;71.6
50166;BME280;36071;48.140;11.516;2023-01-05T10:08:30;96050.0;;;10.7;71.5
50166;BME280;36071;48.140;11.516;2023-01-05T10:13:29;96060.0;;;10.7;70.9
50166;BME280;36071;48.140;11.516;2023-01-05T10:18:29;96050.0;;;10.8;70.1
50166;BME280;36071;48.140;11.516;2023-01-05T10:23:33;96060.0;;;10.8;69.8
50166;BME280;36071;48.140;11.516;2023-01-05T10:28:31;96060.0;;;10.8;69.4
50166;BME280;36071;48.140;11.516;2023-01-05T10:33:37;96050.0;;;10.8;69.0
50166;BME280;36071;48.140;11.516;2023-01-05T10:38:32;96060.0;;;10.8;68.7
50166;BME280;36071;48.140;11.516;2023-01-05T10:43:36;96060.0;;;10.9;68.3
50166;BME280;36071;48.140;11.516;2023-01-05T10:48:29;96050.0;;;10.9;68.4
50166;BME280;36071;48.140;11.516;2023-01-05T10:53:29;96050.0;;;10.9;68.3
50166;BME280;36071;48.140;11.516;2023-01-05T10:58:29;96060.0;;;11.0;68.3
50166;BME280;36071;48.140;11.516;2023-01-05T11:03:32;96050.0;;;11.0;68.0
50166;BME280;36071;48.140;11.516;2023-01-05T11:08:29;96070.0;;;11.0;67.7
50166;BME280;36071;48.140;11.516;2023-01-05T11:13:31;96060.0;;;11.1;67.3
50166;BME280;36071;48.140;11.516;2023-01-05T11:18:30;96060.0;;;11.0;67.3
50166;BME280;36071;48.140;11.516;2023-01-05T11:23:32;96070.0;;;11.0;67.7
50166;BME280;36071;48.140;11.516;2023-01-05T11:28:28;96050.0;;;10.8;69.0
50166;BME280;36071;48.140;11.516;2023-01-05T11:33:29;96050.0;;;10.6;75.4
50166;BME280;36071;48.140;11.516;2023-01-05T11:38:29;96070.0;;;10.4;82.8
50166;BME280;36071;48.140;11.516;2023-01-05T11:43:29;96070.0;;;10.4;82.0
50166;BME280;36071;48.140;11.516;2023-01-05T11:48:30;96070.0;;;10.4;80.5
50166;BME280;36071;48.140;11.516;2023-01-05T11:53:37;96060.0;;;10.6;80.9
50166;BME280;36071;48.140;11.516;2023-01-05T11:58:30;96060.0;;;10.6;81.5
50166;BME280;36071;48.140;11.516;2023-01-05T12:03:37;96060.0;;;10.6;81.9
50166;BME280;36071;48.140;11.516;2023-01-05T12:08:29;96060.0;;;10.5;81.6
50166;BME280;36071;48.140;11.516;2023-01-05T12:13:41;96070.0;;;10.7;81.1
50166;BME280;36071;48.140;11.516;2023-01-05T12:18:36;96050.0;;;10.7;80.4
50166;BME280;36071;48.140;11.516;2023-01-05T12:23:33;96040.0;;;10.9;78.9
50166;BME280;36071;48.140;11.516;2023-01-05T12:28:35;96040.0;;;10.9;77.8
50166;BME280;36071;48.140;11.516;2023-01-05T12:33:34;96030.0;;;11.0;76.6
50166;BME280;36071;48.140;11.516;2023-01-05T12:38:35;96050.0;;;11.1;75.0
50166;BME280;36071;48.140;11.516;2023-01-05T12:43:31;96050.0;;;11.0;75.0
50166;BME280;36071;48.140;11.516;2023-01-05T12:48:29;96040.0;;;11.1;74.4
50166;BME280;36071;48.140;11.516;2023-01-05T12:53:32;96050.0;;;11.1;74.1
50166;BME280;36071;48.140;11.516;2023-01-05T12:58:30;96050.0;;;11.1;73.8
50166;BME280;36071;48.140;11.516;2023-01-05T13:03:29;96050.0;;;11.1;73.5
50166;BME280;36071;48.140;11.516;2023-01-05T13:08:31;96060.0;;;11.0;73.8
50166;BME280;36071;48.140;11.516;2023-01-05T13:13:29;96070.0;;;11.1;73.9
50166;BME280;36071;48.140;11.516;2023-01-05T13:18:29;96060.0;;;11.0;74.6
50166;BME280;36071;48.140;11.516;2023-01-05T13:23:29;96060.0;;;10.9;75.3
50166;BME280;36071;48.140;11.516;2023-01-05T13:28:28;96070.0;;;11.0;75.5
50166;BME280;36071;48.140;11.516;2023-01-05T13:33:33;96080.0;;;11.0;75.7
50166;BME280;36071;48.140;11.516;2023-01-05T13:38:36;96080.0;;;10.9;76.2
50166;BME280;36071;48.140;11.516;2023-01-05T13:48:33;96090.0;;;10.8;77.1
50166;BME280;36071;48.140;11.516;2023-01-05T13:53:28;96090.0;;;10.9;77.2
50166;BME280;36071;48.140;11.516;2023-01-05T13:58:33;96090.0;;;10.8;76.9
50166;BME280;36071;48.140;11.516;2023-01-05T14:03:30;96080.0;;;10.8;77.2
50166;BME280;36071;48.140;11.516;2023-01-05T14:08:29;96090.0;;;10.8;77.6
50166;BME280;36071;48.140;11.516;2023-01-05T14:13:45;96100.0;;;10.7;77.6
50166;BME280;36071;48.140;11.516;2023-01-05T14:18:49;96100.0;;;10.7;76.0
50166;BME280;36071;48.140;11.516;2023-01-05T14:23:53;96100.0;;;10.8;74.6
50166;BME280;36071;48.140;11.516;2023-01-05T14:33:28;96120.0;;;10.8;73.1
50166;BME280;36071;48.140;11.516;2023-01-05T14:38:28;96140.0;;;10.7;73.9
50166;BME280;36071;48.140;11.516;2023-01-05T14:43:29;96130.0;;;10.6;74.9
50166;BME280;36071;48.140;11.516;2023-01-05T14:48:29;96130.0;;;10.6;75.4
50166;BME280;36071;48.140;11.516;2023-01-05T14:53:39;96140.0;;;10.6;74.5
50166;BME280;36071;48.140;11.516;2023-01-05T14:58:49;96140.0;;;10.6;74.9
50166;BME280;36071;48.140;11.516;2023-01-05T15:03:32;96150.0;;;10.5;73.2
50166;BME280;36071;48.140;11.516;2023-01-05T15:08:33;96150.0;;;10.4;70.5
50166;BME280;36071;48.140;11.516;2023-01-05T15:13:35;96140.0;;;10.4;70.2
50166;BME280;36071;48.140;11.516;2023-01-05T15:18:46;96150.0;;;10.3;69.4
50166;BME280;36071;48.140;11.516;2023-01-05T15:23:35;96160.0;;;10.3;69.6
50166;BME280;36071;48.140;11.516;2023-01-05T15:28:32;96160.0;;;10.4;70.3
50166;BME280;36071;48.140;11.516;2023-01-05T15:33:29;96160.0;;;10.3;68.8
50166;BME280;36071;48.140;11.516;2023-01-05T15:38:29;96150.0;;;10.4;69.7
50166;BME280;36071;48.140;11.516;2023-01-05T15:43:29;96170.0;;;10.3;68.9
50166;BME280;36071;48.140;11.516;2023-01-05T15:53:29;96180.0;;;10.4;69.1
50166;BME280;36071;48.140;11.516;2023-01-05T15:58:29;96180.0;;;10.3;69.9
50166;BME280;36071;48.140;11.516;2023-01-05T16:03:30;96190.0;;;10.3;70.1
50166;BME280;36071;48.140;11.516;2023-01-05T16:08:29;96190.0;;;10.1;71.9
50166;BME280;36071;48.140;11.516;2023-01-05T16:13:29;96180.0;;;10.2;73.1
50166;BME280;36071;48.140;11.516;2023-01-05T16:18:29;96200.0;;;10.1;75.5
50166;BME280;36071;48.140;11.516;2023-01-05T16:23:31;96200.0;;;10.0;78.4
50166;BME280;36071;48.140;11.516;2023-01-05T16:28:29;96210.0;;;10.0;80.3
50166;BME280;36071;48.140;11.516;2023-01-05T16:33:29;96210.0;;;9.9;83.7
50166;BME280;36071;48.140;11.516;2023-01-05T16:38:29;96210.0;;;9.9;85.1
50166;BME280;36071;48.140;11.516;2023-01-05T16:43:30;96210.0;;;9.8;85.7
50166;BME280;36071;48.140;11.516;2023-01-05T16:48:42;96200.0;;;9.8;85.9
50166;BME280;36071;48.140;11.516;2023-01-05T16:53:28;96220.0;;;9.7;86.2
50166;BME280;36071;48.140;11.516;2023-01-05T16:58:33;96220.0;;;9.7;86.1
50166;BME280;36071;48.140;11.516;2023-01-05T17:03:30;96220.0;;;9.7;85.9
50166;BME280;36071;48.140;11.516;2023-01-05T17:08:29;96210.0;;;9.7;85.4
50166;BME280;36071;48.140;11.516;2023-01-05T17:13:30;96220.0;;;9.6;85.5
50166;BME280;36071;48.140;11.516;2023-01-05T17:18:29;96230.0;;;9.6;86.3
50166;BME280;36071;48.140;11.516;2023-01-05T17:23:30;96230.0;;;9.6;85.4
50166;BME280;36071;48.140;11.516;2023-01-05T17:28:28;96240.0;;;9.6;85.7
50166;BME280;36071;48.140;11.516;2023-01-05T17:33:29;96240.0;;;9.5;85.3
50166;BME280;36071;48.140;11.516;2023-01-05T17:38:29;96240.0;;;9.6;84.5
50166;BME280;36071;48.140;11.516;2023-01-05T17:43:28;96240.0;;;9.7;83.7
50166;BME280;36071;48.140;11.516;2023-01-05T17:48:28;96240.0;;;9.7;83.6
50166;BME280;36071;48.140;11.516;2023-01-05T17:53:29;96250.0;;;9.6;84.6
50166;BME280;36071;48.140;11.516;2023-01-05T17:58:28;96250.0;;;9.7;84.6
50166;BME280;36071;48.140;11.516;2023-01-05T18:03:29;96260.0;;;9.6;84.7
50166;BME280;36071;48.140;11.516;2023-01-05T18:08:29;96250.0;;;9.6;83.6
50166;BME280;36071;48.140;11.516;2023-01-05T18:13:29;96250.0;;;9.6;84.1
50166;BME280;36071;48.140;11.516;2023-01-05T18:18:28;96240.0;;;9.5;83.8
50166;BME280;36071;48.140;11.516;2023-01-05T18:23:29;96240.0;;;9.5;84.9
50166;BME280;36071;48.140;11.516;2023-01-05T18:28:28;96250.0;;;9.6;84.4
50166;BME280;36071;48.140;11.516;2023-01-05T18:33:28;96250.0;;;9.5;84.0
50166;BME280;36071;48.140;11.516;2023-01-05T18:38:29;96240.0;;;9.6;83.9
50166;BME280;36071;48.140;11.516;2023-01-05T18:43:30;96250.0;;;9.6;84.1
50166;BME280;36071;48.140;11.516;2023-01-05T18:48:29;96250.0;;;9.6;84.5
50166;BME280;36071;48.140;11.516;2023-01-05T18:53:29;96240.0;;;9.6;85.1
50166;BME280;36071;48.140;11.516;2023-01-05T18:58:28;96240.0;;;9.5;86.5
50166;BME280;36071;48.140;11.516;2023-01-05T19:03:28;96250.0;;;9.5;87.4
50166;BME280;36071;48.140;11.516;2023-01-05T19:08:29;96240.0;;;9.5;88.6
50166;BME280;36071;48.140;11.516;2023-01-05T19:13:28;96240.0;;;9.5;90.1
50166;BME280;36071;48.140;11.516;2023-01-05T19:18:28;96240.0;;;9.5;89.8
50166;BME280;36071;48.140;11.516;2023-01-05T19:23:29;96230.0;;;9.5;90.4
50166;BME280;36071;48.140;11.516;2023-01-05T19:28:29;96230.0;;;9.5;90.9
50166;BME280;36071;48.140;11.516;2023-01-05T19:33:28;96240.0;;;9.6;90.9
50166;BME280;36071;48.140;11.516;2023-01-05T19:38:29;96240.0;;;9.5;90.8
50166;BME280;36071;48.140;11.516;2023-01-05T19:43:29;96240.0;;;9.6;90.6
50166;BME280;36071;48.140;11.516;2023-01-05T19:48:30;96230.0;;;9.5;91.0
50166;BME280;36071;48.140;11.516;2023-01-05T19:53:29;96230.0;;;9.5;90.6
50166;BME280;36071;48.140;11.516;2023-01-05T19:58:29;96230.0;;;9.5;90.0
50166;BME280;36071;48.140;11.516;2023-01-05T20:03:28;96230.0;;;9.5;90.3
50166;BME280;36071;48.140;11.516;2023-01-05T20:08:30;96230.0;;;9.5;90.5
50166;BME280;36071;48.140;11.516;2023-01-05T20:13:29;96220.0;;;9.5;90.3
50166;BME280;36071;48.140;11.516;2023-01-05T20:18:28;96210.0;;;9.5;89.6
50166;BME280;36071;48.140;11.516;2023-01-05T20:23:30;96220.0;;;9.4;89.7
50166;BME280;36071;48.140;11.516;2023-01-05T20:28:29;96220.0;;;9.4;89.8
50166;BME280;36071;48.140;11.516;2023-01-05T20:33:29;96220.0;;;9.4;89.0
50166;BME280;36071;48.140;11.516;2023-01-05T20:38:28;96230.0;;;9.4;88.8
50166;BME280;36071;48.140;11.516;2023-01-05T20:43:29;96220.0;;;9.3;89.4
50166;BME280;36071;48.140;11.516;2023-01-05T20:48:28;96230.0;;;9.4;88.8
50166;BME280;36071;48.140;11.516;2023-01-05T20:53:29;96220.0;;;9.4;89.3
50166;BME280;36071;48.140;11.516;2023-01-05T20:58:28;96220.0;;;9.4;88.6
50166;BME280;36071;48.140;11.516;2023-01-05T21:03:28;96230.0;;;9.4;88.8
50166;BME280;36071;48.140;11.516;2023-01-05T21:08:29;96240.0;;;9.4;88.4
50166;BME280;36071;48.140;11.516;2023-01-05T21:13:28;96240.0;;;9.4;87.8
50166;BME280;36071;48.140;11.516;2023-01-05T21:18:29;96250.0;;;9.5;87.5
50166;BME280;36071;48.140;11.516;2023-01-05T21:23:29;96240.0;;;9.5;86.7
50166;BME280;36071;48.140;11.516;2023-01-05T21:28:28;96240.0;;;9.5;86.5
50166;BME280;36071;48.140;11.516;2023-01-05T21:33:29;96250.0;;;9.6;86.0
50166;BME280;36071;48.140;11.516;2023-01-05T21:43:29;96260.0;;;9.6;85.2
50166;BME280;36071;48.140;11.516;2023-01-05T21:48:29;96260.0;;;9.6;86.1
50166;BME280;36071;48.140;11.516;2023-01-05T21:53:29;96260.0;;;9.7;85.3
50166;BME280;36071;48.140;11.516;2023-01-05T21:58:28;96260.0;;;9.6;85.8
50166;BME280;36071;48.140;11.516;2023-01-05T22:03:28;96250.0;;;9.6;85.3
50166;BME280;36071;48.140;11.516;2023-01-05T22:08:29;96250.0;;;9.6;84.9
50166;BME280;36071;48.140;11.516;2023-01-05T22:13:29;96250.0;;;9.6;84.6
50166;BME280;36071;48.140;11.516;2023-01-05T22:18:29;96250.0;;;9.7;83.4
50166;BME280;36071;48.140;11.516;2023-01-05T22:23:29;96250.0;;;9.8;83.0
50166;BME280;36071;48.140;11.516;2023-01-05T22:28:28;96250.0;;;9.7;83.2
50166;BME280;36071;48.140;11.516;2023-01-05T22:33:29;96250.0;;;9.7;83.4
50166;BME280;36071;48.140;11.516;2023-01-05T22:38:29;96250.0;;;9.8;82.8
50166;BME280;36071;48.140;11.516;2023-01-05T22:43:29;96240.0;;;9.7;83.0
50166;BME280;36071;48.140;11.516;2023-01-05T22:48:30;96250.0;;;9.8;83.2
50166;BME280;36071;48.140;11.516;2023-01-05T22:53:29;96250.0;;;9.7;82.8
50166;BME280;36071;48.140;11.516;2023-01-05T22:58:29;96250.0;;;9.7;82.9
50166;BME280;36071;48.140;11.516;2023-01-05T23:03:28;96250.0;;;9.7;83.1
50166;BME280;36071;48.140;11.516;2023-01-05T23:08:29;96240.0;;;9.6;83.4
50166;BME280;36071;48.140;11.516;2023-01-05T23:13:29;96250.0;;;9.6;83.5
50166;BME280;36071;48.140;11.516;2023-01-05T23:18:28;96240.0;;;9.6;83.3
50166;BME280;36071;48.140;11.516;2023-01-05T23:23:29;96240.0;;;9.6;83.2
50166;BME280;36071;48.140;11.516;2023-01-05T23:28:29;96230.0;;;9.6;83.5
50166;BME280;36071;48.140;11.516;2023-01-05T23:33:30;96230.0;;;9.5;83.8
50166;BME280;36071;48.140;11.516;2023-01-05T23:38:29;96230.0;;;9.5;83.6
50166;BME280;36071;48.140;11.516;2023-01-05T23:43:29;96230.0;;;9.5;83.7
50166;BME280;36071;48.140;11.516;2023-01-05T23:48:29;96220.0;;;9.5;83.6
50166;BME280;36071;48.140;11.516;2023-01-05T23:53:28;96210.0;;;9.4;84.2
50166;BME280;36071;48.140;11.516;2023-01-05T23:58:29;96210.0;;;9.4;84.0
